createdAt,value
2018-08-28T00:01:31.102Z,15.90
2018-08-28T00:03:59.266Z,15.90
2018-08-28T00:06:27.445Z,15.90
2018-08-28T00:08:55.748Z,15.90
2018-08-28T00:11:24.064Z,15.90
2018-08-28T00:13:52.277Z,15.90
2018-08-28T00:16:20.609Z,15.90
2018-08-28T00:18:49.098Z,15.90
2018-08-28T00:21:17.340Z,15.90
2018-08-28T00:23:45.547Z,15.90
2018-08-28T00:26:13.753Z,15.90
2018-08-28T00:28:42.028Z,15.90
2018-08-28T00:31:10.657Z,15.90
2018-08-28T00:33:38.878Z,15.80
2018-08-28T00:36:07.064Z,15.80
2018-08-28T00:38:35.380Z,15.90
2018-08-28T00:41:03.791Z,15.80
2018-08-28T00:43:32.038Z,15.80
2018-08-28T00:46:00.216Z,15.80
2018-08-28T00:48:28.728Z,15.80
2018-08-28T00:50:56.904Z,15.80
2018-08-28T00:53:25.305Z,15.80
2018-08-28T00:55:53.525Z,15.80
2018-08-28T00:58:21.735Z,15.80
2018-08-28T01:00:50.196Z,15.80
2018-08-28T01:03:18.384Z,15.80
2018-08-28T01:05:46.556Z,15.80
2018-08-28T01:08:14.733Z,15.80
2018-08-28T01:10:43.059Z,15.80
2018-08-28T01:13:11.212Z,15.80
2018-08-28T01:15:39.729Z,15.80
2018-08-28T01:18:08.132Z,15.80
2018-08-28T01:20:36.506Z,15.80
2018-08-28T01:23:04.691Z,15.80
2018-08-28T01:25:32.916Z,15.80
2018-08-28T01:28:01.218Z,15.80
2018-08-28T01:30:32.512Z,15.70
2018-08-28T01:33:01.091Z,15.70
2018-08-28T01:35:29.486Z,15.70
2018-08-28T01:37:57.744Z,15.70
2018-08-28T01:40:25.977Z,15.70
2018-08-28T01:42:54.409Z,15.70
2018-08-28T01:45:22.577Z,15.70
2018-08-28T01:47:51.030Z,15.70
2018-08-28T01:50:19.217Z,15.70
2018-08-28T01:52:47.494Z,15.70
2018-08-28T01:55:15.968Z,15.60
2018-08-28T01:57:44.157Z,15.60
2018-08-28T02:00:12.837Z,15.60
2018-08-28T02:02:41.143Z,15.60
2018-08-28T02:05:09.404Z,15.60
2018-08-28T02:07:37.601Z,15.60
2018-08-28T02:10:06.612Z,15.60
2018-08-28T02:12:34.847Z,15.60
2018-08-28T02:15:03.052Z,15.60
2018-08-28T02:17:31.283Z,15.50
2018-08-28T02:19:59.462Z,15.50
2018-08-28T02:22:27.768Z,15.50
2018-08-28T02:24:55.965Z,15.50
2018-08-28T02:27:24.395Z,15.40
2018-08-28T02:29:52.597Z,15.40
2018-08-28T02:32:20.764Z,15.30
2018-08-28T02:34:48.941Z,15.30
2018-08-28T02:37:17.378Z,15.20
2018-08-28T02:39:45.659Z,15.20
2018-08-28T02:42:13.942Z,15.10
2018-08-28T02:44:42.523Z,15.00
2018-08-28T02:47:10.707Z,15.00
2018-08-28T02:49:38.900Z,14.90
2018-08-28T02:52:07.072Z,14.90
2018-08-28T02:54:35.274Z,14.80
2018-08-28T02:57:03.553Z,14.80
2018-08-28T02:59:31.740Z,14.70
2018-08-28T03:02:00.077Z,14.70
2018-08-28T03:04:28.334Z,14.60
2018-08-28T03:06:56.692Z,14.60
2018-08-28T03:09:24.970Z,14.60
2018-08-28T03:11:53.181Z,14.50
2018-08-28T03:14:21.754Z,14.50
2018-08-28T03:16:50.072Z,14.50
2018-08-28T03:19:18.393Z,14.40
2018-08-28T03:21:46.716Z,14.30
2018-08-28T03:24:15.034Z,14.30
2018-08-28T03:26:43.460Z,14.30
2018-08-28T03:29:11.869Z,14.20
2018-08-28T03:31:40.006Z,14.20
2018-08-28T03:34:08.772Z,14.20
2018-08-28T03:36:36.953Z,14.10
2018-08-28T03:39:06.292Z,14.10
2018-08-28T03:41:34.519Z,14.00
2018-08-28T03:44:02.812Z,14.00
2018-08-28T03:46:31.037Z,14.00
2018-08-28T03:48:59.326Z,13.90
2018-08-28T03:51:27.742Z,13.90
2018-08-28T03:53:56.144Z,13.90
2018-08-28T03:59:17.418Z,13.80
2018-08-28T04:01:45.801Z,13.70
2018-08-28T04:04:14.046Z,13.70
2018-08-28T04:06:42.375Z,13.70
2018-08-28T04:09:10.769Z,13.60
2018-08-28T04:11:38.960Z,13.60
2018-08-28T04:14:07.279Z,13.50
2018-08-28T04:16:35.458Z,13.50
2018-08-28T04:19:03.724Z,13.50
2018-08-28T04:21:32.016Z,13.40
2018-08-28T04:24:00.357Z,13.40
2018-08-28T04:26:29.054Z,13.30
2018-08-28T04:28:57.249Z,13.30
2018-08-28T04:31:25.597Z,13.20
2018-08-28T04:33:54.003Z,13.20
2018-08-28T04:36:22.201Z,13.20
2018-08-28T04:38:50.402Z,13.10
2018-08-28T04:41:18.704Z,13.10
2018-08-28T04:43:46.984Z,13.10
2018-08-28T04:46:15.154Z,13.00
2018-08-28T04:48:43.363Z,13.00
2018-08-28T04:51:11.545Z,13.00
2018-08-28T04:53:40.212Z,12.90
2018-08-28T04:56:08.429Z,12.90
2018-08-28T04:58:36.863Z,12.80
2018-08-28T05:01:05.051Z,12.80
2018-08-28T05:03:33.358Z,12.80
2018-08-28T05:06:01.613Z,12.80
2018-08-28T05:08:31.062Z,12.80
2018-08-28T05:10:59.228Z,12.70
2018-08-28T05:13:28.000Z,12.70
2018-08-28T05:15:56.249Z,12.70
2018-08-28T05:18:24.433Z,12.70
2018-08-28T05:20:52.660Z,12.70
2018-08-28T05:23:20.853Z,12.70
2018-08-28T05:25:49.180Z,12.70
2018-08-28T05:28:17.379Z,12.70
2018-08-28T05:30:45.581Z,12.70
2018-08-28T05:33:13.769Z,12.70
2018-08-28T05:35:41.947Z,12.80
2018-08-28T05:38:10.225Z,12.80
2018-08-28T05:40:38.451Z,12.80
2018-08-28T05:43:06.740Z,12.90
2018-08-28T05:45:35.417Z,12.90
2018-08-28T05:48:03.965Z,12.90
2018-08-28T05:50:32.180Z,13.00
2018-08-28T05:53:00.395Z,13.00
2018-08-28T05:55:28.572Z,13.00
2018-08-28T05:57:56.822Z,13.10
2018-08-28T06:00:25.138Z,13.10
2018-08-28T06:02:53.351Z,13.20
2018-08-28T06:05:21.520Z,13.20
2018-08-28T06:07:49.741Z,13.20
2018-08-28T06:10:17.924Z,13.30
2018-08-28T06:12:46.330Z,13.30
2018-08-28T06:15:14.740Z,13.40
2018-08-28T06:17:43.037Z,13.50
2018-08-28T06:20:11.337Z,13.60
2018-08-28T06:22:39.541Z,13.60
2018-08-28T06:25:07.860Z,13.70
2018-08-28T06:27:36.065Z,13.80
2018-08-28T06:30:04.297Z,13.90
2018-08-28T06:32:32.767Z,14.00
2018-08-28T06:35:00.980Z,14.10
2018-08-28T06:37:29.220Z,14.10
2018-08-28T06:39:57.329Z,14.20
2018-08-28T06:42:25.505Z,14.30
2018-08-28T06:44:53.728Z,14.40
2018-08-28T06:47:21.993Z,14.50
2018-08-28T06:49:50.185Z,14.50
2018-08-28T06:52:18.439Z,14.60
2018-08-28T06:54:46.610Z,14.70
2018-08-28T06:57:15.001Z,14.80
2018-08-28T06:59:43.188Z,14.90
2018-08-28T07:02:11.453Z,14.90
2018-08-28T07:04:40.235Z,15.00
2018-08-28T07:07:09.010Z,15.00
2018-08-28T07:09:37.189Z,15.10
2018-08-28T07:12:05.393Z,15.20
2018-08-28T07:14:33.584Z,15.20
2018-08-28T07:17:01.909Z,15.30
2018-08-28T07:19:30.076Z,15.40
2018-08-28T07:21:58.264Z,15.40
2018-08-28T07:24:26.470Z,15.50
2018-08-28T07:26:54.706Z,15.50
2018-08-28T07:29:22.919Z,15.60
2018-08-28T07:31:51.163Z,15.60
2018-08-28T07:34:19.329Z,15.70
2018-08-28T07:36:47.504Z,15.80
2018-08-28T07:39:15.685Z,15.80
2018-08-28T07:41:44.294Z,15.90
2018-08-28T07:44:12.452Z,15.90
2018-08-28T07:46:40.653Z,16.00
2018-08-28T07:49:08.826Z,16.00
2018-08-28T07:51:36.997Z,16.10
2018-08-28T07:54:05.301Z,16.10
2018-08-28T07:56:34.350Z,16.20
2018-08-28T07:59:02.529Z,16.20
2018-08-28T08:01:30.778Z,16.20
2018-08-28T08:03:59.001Z,16.20
2018-08-28T08:06:27.222Z,16.30
2018-08-28T08:08:55.922Z,16.30
2018-08-28T08:11:24.105Z,16.40
2018-08-28T08:13:52.396Z,16.40
2018-08-28T08:16:20.718Z,16.40
2018-08-28T08:18:48.954Z,16.50
2018-08-28T08:21:17.145Z,16.50
2018-08-28T08:23:45.331Z,16.60
2018-08-28T08:26:13.513Z,16.70
2018-08-28T08:28:41.697Z,16.70
2018-08-28T08:31:09.876Z,16.80
2018-08-28T08:33:38.054Z,16.90
2018-08-28T08:36:06.248Z,16.90
2018-08-28T08:38:34.444Z,17.00
2018-08-28T08:41:02.664Z,17.10
2018-08-28T08:43:30.835Z,17.10
2018-08-28T08:45:59.023Z,17.20
2018-08-28T08:48:27.208Z,17.30
2018-08-28T08:50:55.429Z,17.30
2018-08-28T08:53:23.649Z,17.40
2018-08-28T08:55:51.833Z,17.50
2018-08-28T08:58:20.024Z,17.50
2018-08-28T09:00:48.626Z,17.60
2018-08-28T09:03:16.839Z,17.60
2018-08-28T09:05:45.028Z,17.60
2018-08-28T09:08:13.245Z,17.60
2018-08-28T09:10:41.436Z,17.70
2018-08-28T09:13:09.668Z,17.70
2018-08-28T09:15:37.858Z,17.70
2018-08-28T09:18:06.264Z,17.80
2018-08-28T09:20:34.602Z,17.80
2018-08-28T09:23:02.822Z,17.80
2018-08-28T09:25:31.010Z,17.90
2018-08-28T09:27:59.227Z,17.90
2018-08-28T09:30:27.619Z,17.90
2018-08-28T09:32:55.836Z,18.00
2018-08-28T09:35:24.025Z,18.00
2018-08-28T09:37:52.198Z,18.10
2018-08-28T09:40:20.413Z,18.10
2018-08-28T09:42:48.570Z,18.10
2018-08-28T09:45:16.776Z,18.20
2018-08-28T09:47:45.201Z,18.20
2018-08-28T09:50:13.419Z,18.30
2018-08-28T09:52:41.588Z,18.30
2018-08-28T09:55:10.231Z,18.30
2018-08-28T09:57:38.597Z,18.30
2018-08-28T10:00:08.155Z,18.30
2018-08-28T10:02:36.745Z,18.40
2018-08-28T10:05:04.974Z,18.50
2018-08-28T10:07:33.201Z,18.60
2018-08-28T10:10:01.761Z,18.70
2018-08-28T10:12:29.963Z,18.80
2018-08-28T10:14:58.151Z,18.90
2018-08-28T10:17:26.339Z,19.00
2018-08-28T10:19:54.498Z,19.00
2018-08-28T10:22:22.684Z,19.10
2018-08-28T10:24:50.994Z,19.20
2018-08-28T10:27:19.168Z,19.30
2018-08-28T10:29:47.410Z,19.50
2018-08-28T10:32:15.534Z,19.60
2018-08-28T10:34:43.772Z,19.70
2018-08-28T10:37:11.946Z,19.80
2018-08-28T10:40:11.069Z,19.90
2018-08-28T10:42:40.506Z,20.00
2018-08-28T10:45:08.680Z,20.10
2018-08-28T10:47:36.840Z,20.20
2018-08-28T10:50:06.114Z,20.20
2018-08-28T10:52:34.340Z,20.10
2018-08-28T10:55:02.529Z,20.00
2018-08-28T10:57:30.719Z,19.90
2018-08-28T10:59:58.896Z,19.80
2018-08-28T11:02:27.472Z,19.80
2018-08-28T11:04:55.673Z,19.80
2018-08-28T11:07:23.848Z,19.90
2018-08-28T11:09:52.048Z,20.00
2018-08-28T11:12:20.217Z,20.10
2018-08-28T11:14:48.402Z,20.10
2018-08-28T11:17:16.576Z,20.20
2018-08-28T11:19:44.750Z,20.20
2018-08-28T11:22:12.977Z,20.20
2018-08-28T11:24:41.216Z,20.30
2018-08-28T11:27:10.213Z,20.30
2018-08-28T11:29:39.311Z,20.30
2018-08-28T11:32:08.371Z,20.30
2018-08-28T11:34:36.586Z,20.40
2018-08-28T11:37:07.295Z,20.60
2018-08-28T11:39:35.489Z,20.80
2018-08-28T11:42:03.672Z,20.80
2018-08-28T11:44:31.842Z,20.90
2018-08-28T11:47:00.018Z,20.90
2018-08-28T11:49:28.188Z,20.80
2018-08-28T11:51:56.372Z,20.90
2018-08-28T11:54:24.573Z,20.90
2018-08-28T11:56:52.772Z,21.00
2018-08-28T11:59:20.966Z,21.00
2018-08-28T12:01:49.294Z,21.00
2018-08-28T12:04:17.448Z,21.10
2018-08-28T12:06:45.735Z,21.10
2018-08-28T12:09:14.764Z,21.20
2018-08-28T12:11:42.958Z,21.30
2018-08-28T12:14:11.374Z,21.40
2018-08-28T12:16:39.553Z,21.50
2018-08-28T12:19:07.779Z,21.70
2018-08-28T12:21:35.969Z,21.80
2018-08-28T12:24:04.152Z,21.90
2018-08-28T12:26:32.355Z,21.90
2018-08-28T12:29:00.555Z,21.90
2018-08-28T12:31:28.780Z,21.90
2018-08-28T12:33:57.136Z,21.90
2018-08-28T12:36:25.358Z,22.00
2018-08-28T12:38:53.657Z,22.00
2018-08-28T12:41:21.990Z,22.10
2018-08-28T12:43:50.241Z,22.10
2018-08-28T12:46:18.385Z,22.10
2018-08-28T12:48:46.679Z,22.20
2018-08-28T12:51:14.951Z,22.20
2018-08-28T12:53:43.209Z,22.20
2018-08-28T12:56:11.406Z,22.30
2018-08-28T12:58:39.720Z,22.30
2018-08-28T13:01:07.968Z,22.40
2018-08-28T13:03:36.152Z,22.40
2018-08-28T13:06:04.375Z,22.50
2018-08-28T13:08:32.789Z,22.60
2018-08-28T13:11:01.181Z,22.70
2018-08-28T13:13:29.367Z,22.80
2018-08-28T13:15:57.540Z,22.90
2018-08-28T13:18:25.817Z,23.00
2018-08-28T13:20:54.076Z,23.10
2018-08-28T13:23:22.284Z,23.20
2018-08-28T13:25:50.509Z,23.20
2018-08-28T13:28:18.993Z,23.20
2018-08-28T13:30:47.588Z,23.20
2018-08-28T13:33:15.678Z,23.20
2018-08-28T13:35:43.856Z,23.20
2018-08-28T13:38:12.128Z,23.20
2018-08-28T13:40:40.657Z,23.30
2018-08-28T13:43:08.889Z,23.40
2018-08-28T13:45:37.057Z,23.50
2018-08-28T13:48:05.357Z,23.60
2018-08-28T13:50:33.884Z,23.60
2018-08-28T13:53:02.269Z,23.60
2018-08-28T13:55:31.734Z,23.70
2018-08-28T13:57:59.964Z,23.70
2018-08-28T14:00:28.241Z,23.70
2018-08-28T14:02:56.465Z,23.80
2018-08-28T14:05:24.670Z,23.90
2018-08-28T14:07:52.861Z,24.00
2018-08-28T14:10:21.081Z,24.00
2018-08-28T14:12:49.476Z,24.00
2018-08-28T14:15:17.921Z,24.10
2018-08-28T14:17:46.144Z,24.10
2018-08-28T14:20:14.660Z,24.10
2018-08-28T14:22:42.896Z,24.20
2018-08-28T14:25:11.012Z,24.20
2018-08-28T14:27:39.186Z,24.20
2018-08-28T14:30:07.561Z,24.20
2018-08-28T14:32:35.968Z,24.30
2018-08-28T14:35:04.206Z,24.30
2018-08-28T14:37:32.489Z,24.30
2018-08-28T14:40:00.746Z,24.30
2018-08-28T14:42:29.112Z,24.30
2018-08-28T14:44:57.283Z,24.20
2018-08-28T14:47:25.541Z,24.20
2018-08-28T14:49:53.837Z,24.20
2018-08-28T14:52:22.091Z,24.20
2018-08-28T14:54:50.309Z,24.10
2018-08-28T14:57:18.538Z,24.10
2018-08-28T14:59:46.724Z,24.00
2018-08-28T15:02:14.903Z,24.00
2018-08-28T15:04:43.083Z,23.90
2018-08-28T15:07:11.470Z,23.90
2018-08-28T15:09:39.486Z,23.80
2018-08-28T15:12:07.696Z,23.70
2018-08-28T15:14:35.882Z,23.60
2018-08-28T15:17:04.097Z,23.60
2018-08-28T15:19:32.300Z,23.60
2018-08-28T15:22:00.464Z,23.50
2018-08-28T15:24:28.652Z,23.50
2018-08-28T15:26:56.833Z,23.50
2018-08-28T15:29:25.043Z,23.40
2018-08-28T15:31:53.221Z,23.40
2018-08-28T15:34:21.413Z,23.40
2018-08-28T15:36:49.712Z,23.40
2018-08-28T15:39:18.041Z,23.40
2018-08-28T15:41:46.247Z,23.30
2018-08-28T15:44:14.456Z,23.20
2018-08-28T15:46:42.801Z,23.20
2018-08-28T15:49:11.311Z,23.20
2018-08-28T15:51:39.524Z,23.20
2018-08-28T15:54:07.732Z,23.20
2018-08-28T15:56:35.912Z,23.10
2018-08-28T15:59:04.196Z,23.10
2018-08-28T16:01:32.318Z,23.10
2018-08-28T16:04:01.514Z,23.10
2018-08-28T16:06:29.709Z,23.10
2018-08-28T16:08:57.903Z,23.10
2018-08-28T16:11:26.444Z,23.10
2018-08-28T16:13:54.840Z,23.10
2018-08-28T16:16:23.047Z,23.00
2018-08-28T16:18:51.200Z,23.00
2018-08-28T16:21:19.388Z,23.00
2018-08-28T16:23:48.843Z,22.90
2018-08-28T16:26:16.935Z,22.90
2018-08-28T16:28:45.096Z,22.80
2018-08-28T16:31:13.276Z,22.80
2018-08-28T16:33:41.453Z,22.80
2018-08-28T16:36:09.648Z,22.70
2018-08-28T16:38:37.854Z,22.70
2018-08-28T16:41:06.106Z,22.60
2018-08-28T16:43:34.248Z,22.60
2018-08-28T16:46:02.458Z,22.60
2018-08-28T16:48:30.897Z,22.60
2018-08-28T16:50:59.123Z,22.60
2018-08-28T16:53:27.373Z,22.60
2018-08-28T16:55:55.711Z,22.60
2018-08-28T16:58:23.810Z,22.60
2018-08-28T17:00:52.221Z,22.60
2018-08-28T17:03:20.406Z,22.50
2018-08-28T17:05:48.597Z,22.50
2018-08-28T17:08:16.775Z,22.50
2018-08-28T17:10:44.960Z,22.40
2018-08-28T17:13:13.508Z,22.50
2018-08-28T17:15:41.680Z,22.40
2018-08-28T17:18:09.865Z,22.40
2018-08-28T17:20:38.314Z,22.40
2018-08-28T17:23:07.185Z,22.30
2018-08-28T17:25:35.365Z,22.30
2018-08-28T17:28:03.708Z,22.30
2018-08-28T17:30:31.884Z,22.30
2018-08-28T17:33:00.430Z,22.20
2018-08-28T17:35:28.608Z,22.20
2018-08-28T17:37:56.798Z,22.10
2018-08-28T17:40:25.004Z,22.10
2018-08-28T17:42:53.178Z,22.10
2018-08-28T17:45:21.361Z,22.00
2018-08-28T17:47:49.532Z,22.00
2018-08-28T17:50:17.706Z,21.90
2018-08-28T17:52:45.876Z,21.80
2018-08-28T17:55:14.150Z,21.80
2018-08-28T17:57:42.353Z,21.70
2018-08-28T18:00:10.606Z,21.60
2018-08-28T18:02:38.857Z,21.50
2018-08-28T18:05:07.041Z,21.40
2018-08-28T18:07:35.216Z,21.30
2018-08-28T18:10:03.397Z,21.20
2018-08-28T18:12:31.586Z,21.20
2018-08-28T18:14:59.770Z,21.10
2018-08-28T18:17:27.977Z,20.90
2018-08-28T18:19:56.236Z,20.80
2018-08-28T18:22:24.447Z,20.70
2018-08-28T18:24:52.633Z,20.60
2018-08-28T18:27:21.075Z,20.60
2018-08-28T18:29:49.336Z,20.50
2018-08-28T18:32:17.516Z,20.40
2018-08-28T18:34:45.744Z,20.30
2018-08-28T18:37:13.946Z,20.20
2018-08-28T18:39:42.141Z,20.10
2018-08-28T18:42:10.324Z,20.00
2018-08-28T18:44:38.484Z,19.90
2018-08-28T18:47:06.760Z,19.80
2018-08-28T18:49:34.855Z,19.70
2018-08-28T18:52:03.017Z,19.60
2018-08-28T18:54:31.757Z,19.50
2018-08-28T18:56:59.953Z,19.50
2018-08-28T18:59:28.140Z,19.40
2018-08-28T19:01:56.480Z,19.30
2018-08-28T19:04:25.089Z,19.20
2018-08-28T19:06:53.373Z,19.10
2018-08-28T19:09:21.847Z,19.00
2018-08-28T19:11:50.029Z,18.90
2018-08-28T19:14:18.337Z,18.90
2018-08-28T19:16:46.616Z,18.80
2018-08-28T19:19:14.813Z,18.70
2018-08-28T19:21:42.980Z,18.60
2018-08-28T19:24:11.377Z,18.60
2018-08-28T19:26:39.574Z,18.50
2018-08-28T19:29:07.821Z,18.40
2018-08-28T19:31:36.140Z,18.40
2018-08-28T19:34:04.267Z,18.30
2018-08-28T19:36:32.433Z,18.30
2018-08-28T19:39:00.629Z,18.20
2018-08-28T19:41:29.028Z,18.10
2018-08-28T19:43:57.328Z,18.10
2018-08-28T19:46:25.491Z,18.00
2018-08-28T19:48:53.709Z,17.90
2018-08-28T19:51:21.881Z,17.90
2018-08-28T19:53:50.079Z,17.80
2018-08-28T19:56:18.265Z,17.70
2018-08-28T19:58:46.438Z,17.60
2018-08-28T20:01:14.616Z,17.60
2018-08-28T20:03:42.865Z,17.50
2018-08-28T20:06:11.052Z,17.50
2018-08-28T20:08:39.513Z,17.40
2018-08-28T20:11:07.752Z,17.30
2018-08-28T20:13:35.919Z,17.30
2018-08-28T20:16:04.103Z,17.20
2018-08-28T20:18:32.308Z,17.20
2018-08-28T20:21:00.486Z,17.10
2018-08-28T20:23:28.787Z,17.00
2018-08-28T20:25:56.963Z,17.00
2018-08-28T20:28:25.125Z,17.00
2018-08-28T20:30:53.317Z,16.90
2018-08-28T20:33:21.779Z,16.90
2018-08-28T20:35:50.001Z,16.80
2018-08-28T20:38:18.174Z,16.80
2018-08-28T20:40:46.341Z,16.70
2018-08-28T20:43:14.500Z,16.70
2018-08-28T20:45:42.702Z,16.60
2018-08-28T20:48:10.840Z,16.60
2018-08-28T20:50:39.004Z,16.50
2018-08-28T20:53:07.189Z,16.40
2018-08-28T20:55:35.368Z,16.40
2018-08-28T20:58:03.621Z,16.30
2018-08-28T21:00:35.059Z,16.30
2018-08-28T21:03:03.268Z,16.20
2018-08-28T21:05:31.758Z,16.20
2018-08-28T21:08:00.858Z,16.10
2018-08-28T21:10:29.568Z,16.10
2018-08-28T21:12:57.857Z,16.00
2018-08-28T21:15:25.922Z,16.00
2018-08-28T21:17:54.124Z,15.90
2018-08-28T21:20:22.306Z,15.90
2018-08-28T21:22:50.522Z,15.80
2018-08-28T21:25:18.686Z,15.70
2018-08-28T21:27:46.851Z,15.70
2018-08-28T21:30:15.021Z,15.70
2018-08-28T21:32:43.193Z,15.60
2018-08-28T21:35:11.388Z,15.50
2018-08-28T21:37:39.564Z,15.50
2018-08-28T21:40:07.749Z,15.50
2018-08-28T21:42:35.910Z,15.40
2018-08-28T21:45:04.092Z,15.40
2018-08-28T21:47:32.285Z,15.30
2018-08-28T21:50:00.481Z,15.30
2018-08-28T21:52:28.645Z,15.20
2018-08-28T21:54:56.824Z,15.20
2018-08-28T21:57:25.066Z,15.20
2018-08-28T21:59:53.249Z,15.10
2018-08-28T22:02:21.529Z,15.10
2018-08-28T22:04:49.720Z,15.00
2018-08-28T22:07:23.302Z,15.00
2018-08-28T22:09:51.481Z,14.90
2018-08-28T22:12:19.664Z,14.90
2018-08-28T22:14:47.836Z,14.90
2018-08-28T22:17:15.994Z,14.80
2018-08-28T22:19:44.177Z,14.80
2018-08-28T22:22:12.408Z,14.80
2018-08-28T22:24:40.552Z,14.70
2018-08-28T22:27:08.709Z,14.70
2018-08-28T22:29:36.858Z,14.70
2018-08-28T22:32:05.066Z,14.60
2018-08-28T22:34:33.241Z,14.60
2018-08-28T22:37:01.373Z,14.60
2018-08-28T22:39:29.977Z,14.60
2018-08-28T22:41:58.184Z,14.50
2018-08-28T22:44:26.356Z,14.50
2018-08-28T22:46:54.518Z,14.50
2018-08-28T22:49:22.716Z,14.50
2018-08-28T22:51:50.877Z,14.40
2018-08-28T22:54:19.053Z,14.40
2018-08-28T22:56:47.321Z,14.40
2018-08-28T22:59:15.504Z,14.40
2018-08-28T23:01:43.649Z,14.40
2018-08-28T23:04:11.894Z,14.40
2018-08-28T23:06:40.040Z,14.40
2018-08-28T23:09:08.448Z,14.40
2018-08-28T23:11:36.592Z,14.40
2018-08-28T23:14:05.061Z,14.30
2018-08-28T23:16:33.605Z,14.30
2018-08-28T23:19:01.762Z,14.30
2018-08-28T23:21:29.895Z,14.30
2018-08-28T23:23:58.059Z,14.20
2018-08-28T23:26:26.209Z,14.20
2018-08-28T23:28:54.369Z,14.20
2018-08-28T23:31:22.521Z,14.20
2018-08-28T23:33:50.697Z,14.20
2018-08-28T23:36:18.835Z,14.30
2018-08-28T23:38:46.980Z,14.30
2018-08-28T23:41:15.178Z,14.30
2018-08-28T23:43:43.660Z,14.30
2018-08-28T23:46:11.807Z,14.30
2018-08-28T23:48:39.964Z,14.30
2018-08-28T23:51:08.112Z,14.30
2018-08-28T23:53:36.270Z,14.30
2018-08-28T23:56:04.412Z,14.30
2018-08-28T23:58:32.589Z,14.30
